Giltner, NE

5:28 PM CDT on June 02, 2015 (GMT -0500)
York Municipal | | Change Station
CLOSE
Current Station
Airport
Location: York,
Elevation: 1670 ft
Nearby Weather Stations
Active Advisory: Flood Warning

Elev 1670 ft 40.90 °N, 97.62 °W | Updated 13 minutes ago

Partly Cloudy
Partly Cloudy
81 °F
Feels Like 83 °F
N
16
Wind Variable Wind from SSE
Gusts 23 mph

Today
High -- | Low -- °F
--% Chance of Precip.
Yesterday
High -- | Low -- °F
Precip. -- in
6:03 AM 8:58 PM
Full, 100% visible
Pressure 29.85 in
Visibility 10.0 miles
Clouds Scattered Clouds 3200 ft
Heat Index 83 °F
Dew Point 66 °F
Humidity 61%
Rainfall 0.00 in
Snow Depth Not available.
UV 4 out of 12
Pollen 8.00 out of 12
Air Quality Not available.
Flu Activity No Activity
METAR KJYR 022215Z AUTO 15014G20KT 10SM SCT032 27/19 A2985 RMK AO2

More Conditions Fewer Conditions

Pressure 29.85 in
Visibility 10.0 miles
Clouds Scattered Clouds 3200 ft
Heat Index 83 °F
Dew Point 66 °F
Humidity 61%
Rainfall 0.00 in
Snow Depth Not available.
UV 4 out of 12
Pollen 8.00 out of 12
Air Quality Not available.
Flu Activity No Activity
METAR KJYR 022215Z AUTO 15014G20KT 10SM SCT032 27/19 A2985 RMK AO2

More Conditions Fewer Conditions

10-Day Weather Forecast

×

Almanac

Astronomy

Jun. 02, 2015 Rise Set
Actual Time
Civil Twilight
Nautical Twilight
Astronomical Twilight
Moon
Length of Visible Light
Length of Day
Tomorrow will be .
, % of the Moon is Illuminated

Today's Extremes

State Highs State Lows

Community

WunderPhotos

Upload Photos

1,826,049 photos uploaded!

WunderBlogs® & News

Nearby

Air Quality

  Air Quality AQ Index Pollutant
Not available.

Snow Depth

Station Depth Elevation

Earthquake Activity

City Distance Mag. Time & Date
Minimum magnitude displayed is 2.5.

Coastal Water Temperatures

Place Temperature

Stations

Nearby Weather Stations

Station Location Temp. Windchill Dew Point Humidity Wind Precip. Elev Updated Type
                   
Flood Warning
Statement as of 9:05 AM CDT on June 02, 2015

The Flood Warning continues for
the Platte River near Grand Island.
* At 8:15 am Tuesday the stage was 6.7 feet.
* Flood stage is 6.5 feet.
* Minor flooding is occurring and minor flooding is forecast.
* Forecast... the river will continue rising to near 6.8 feet
tonight, then be nearly steady before falling on Thursday.
* At 7.0 feet... a few farmsteads may be threatened by overflows. The
city of Grand Island is not threatened by flood waters.


Lat... Lon 4083 9839 4121 9782 4116 9782 4079 9833